sensor_id;sensor_type;location;lat;lon;timestamp;temperature;humidity
22112;DHT22;11222;50.872;4.312;2023-10-31T00:01:31;11.60;99.90
22112;DHT22;11222;50.872;4.312;2023-10-31T00:03:56;11.60;99.90
22112;DHT22;11222;50.872;4.312;2023-10-31T00:06:22;11.60;99.90
22112;DHT22;11222;50.872;4.312;2023-10-31T00:08:47;11.60;99.90
22112;DHT22;11222;50.872;4.312;2023-10-31T00:11:13;11.60;99.90
22112;DHT22;11222;50.872;4.312;2023-10-31T00:13:38;11.60;99.90
22112;DHT22;11222;50.872;4.312;2023-10-31T00:16:04;11.60;99.90
22112;DHT22;11222;50.872;4.312;2023-10-31T00:18:30;11.60;99.90
22112;DHT22;11222;50.872;4.312;2023-10-31T00:20:55;11.60;99.90
22112;DHT22;11222;50.872;4.312;2023-10-31T00:23:22;11.60;99.90
22112;DHT22;11222;50.872;4.312;2023-10-31T00:25:47;11.60;99.90
22112;DHT22;11222;50.872;4.312;2023-10-31T00:28:13;11.60;99.90
22112;DHT22;11222;50.872;4.312;2023-10-31T00:30:39;11.60;99.90
22112;DHT22;11222;50.872;4.312;2023-10-31T00:33:04;11.50;99.90
22112;DHT22;11222;50.872;4.312;2023-10-31T00:35:30;11.50;99.90
22112;DHT22;11222;50.872;4.312;2023-10-31T00:37:56;11.50;99.90
22112;DHT22;11222;50.872;4.312;2023-10-31T00:40:21;11.50;99.90
22112;DHT22;11222;50.872;4.312;2023-10-31T00:42:47;11.50;99.90
22112;DHT22;11222;50.872;4.312;2023-10-31T00:45:13;11.50;99.90
22112;DHT22;11222;50.872;4.312;2023-10-31T00:47:38;11.50;99.90
22112;DHT22;11222;50.872;4.312;2023-10-31T00:50:04;11.50;99.90
22112;DHT22;11222;50.872;4.312;2023-10-31T00:52:29;11.50;99.90
22112;DHT22;11222;50.872;4.312;2023-10-31T00:54:55;11.40;99.90
22112;DHT22;11222;50.872;4.312;2023-10-31T00:57:20;11.50;99.90
22112;DHT22;11222;50.872;4.312;2023-10-31T00:59:46;11.40;99.90
22112;DHT22;11222;50.872;4.312;2023-10-31T01:02:11;11.40;99.90
22112;DHT22;11222;50.872;4.312;2023-10-31T01:04:37;11.40;99.90
22112;DHT22;11222;50.872;4.312;2023-10-31T01:07:03;11.40;99.90
22112;DHT22;11222;50.872;4.312;2023-10-31T01:09:28;11.40;99.90
22112;DHT22;11222;50.872;4.312;2023-10-31T01:11:54;11.30;99.90
22112;DHT22;11222;50.872;4.312;2023-10-31T01:14:19;11.30;99.90
22112;DHT22;11222;50.872;4.312;2023-10-31T01:16:45;11.30;99.90
22112;DHT22;11222;50.872;4.312;2023-10-31T01:19:11;11.30;99.90
22112;DHT22;11222;50.872;4.312;2023-10-31T01:21:36;11.30;99.90
22112;DHT22;11222;50.872;4.312;2023-10-31T01:24:02;11.30;99.90
22112;DHT22;11222;50.872;4.312;2023-10-31T01:26:27;11.30;99.90
22112;DHT22;11222;50.872;4.312;2023-10-31T01:28:53;11.30;99.90
22112;DHT22;11222;50.872;4.312;2023-10-31T01:31:18;11.30;99.90
22112;DHT22;11222;50.872;4.312;2023-10-31T01:33:44;11.20;99.90
22112;DHT22;11222;50.872;4.312;2023-10-31T01:36:10;11.10;99.90
22112;DHT22;11222;50.872;4.312;2023-10-31T01:38:39;11.10;99.90
22112;DHT22;11222;50.872;4.312;2023-10-31T01:41:04;11.10;99.90
22112;DHT22;11222;50.872;4.312;2023-10-31T01:43:34;11.10;99.90
22112;DHT22;11222;50.872;4.312;2023-10-31T01:46:00;11.00;99.90
22112;DHT22;11222;50.872;4.312;2023-10-31T01:48:27;11.00;99.90
22112;DHT22;11222;50.872;4.312;2023-10-31T01:50:52;11.00;99.90
22112;DHT22;11222;50.872;4.312;2023-10-31T01:53:18;11.00;99.90
22112;DHT22;11222;50.872;4.312;2023-10-31T01:55:47;11.00;99.90
22112;DHT22;11222;50.872;4.312;2023-10-31T01:58:13;11.00;99.90
22112;DHT22;11222;50.872;4.312;2023-10-31T02:00:39;11.00;99.90
22112;DHT22;11222;50.872;4.312;2023-10-31T02:03:06;11.00;99.90
22112;DHT22;11222;50.872;4.312;2023-10-31T02:05:32;11.00;99.90
22112;DHT22;11222;50.872;4.312;2023-10-31T02:07:57;11.00;99.90
22112;DHT22;11222;50.872;4.312;2023-10-31T02:10:23;11.10;99.90
22112;DHT22;11222;50.872;4.312;2023-10-31T02:12:48;11.10;99.90
22112;DHT22;11222;50.872;4.312;2023-10-31T02:15:14;11.10;99.90
22112;DHT22;11222;50.872;4.312;2023-10-31T02:17:39;11.10;99.90
22112;DHT22;11222;50.872;4.312;2023-10-31T02:20:05;11.10;99.90
22112;DHT22;11222;50.872;4.312;2023-10-31T02:22:31;11.10;99.90
22112;DHT22;11222;50.872;4.312;2023-10-31T02:24:56;11.10;99.90
22112;DHT22;11222;50.872;4.312;2023-10-31T02:27:22;11.10;99.90
22112;DHT22;11222;50.872;4.312;2023-10-31T02:29:47;11.10;99.90
22112;DHT22;11222;50.872;4.312;2023-10-31T02:32:13;11.10;99.90
22112;DHT22;11222;50.872;4.312;2023-10-31T02:34:38;11.10;99.90
22112;DHT22;11222;50.872;4.312;2023-10-31T02:37:04;11.10;99.90
22112;DHT22;11222;50.872;4.312;2023-10-31T02:39:30;11.00;99.90
22112;DHT22;11222;50.872;4.312;2023-10-31T02:41:56;10.90;99.90
22112;DHT22;11222;50.872;4.312;2023-10-31T02:44:21;10.90;99.90
22112;DHT22;11222;50.872;4.312;2023-10-31T02:46:47;10.90;99.90
22112;DHT22;11222;50.872;4.312;2023-10-31T02:49:12;10.80;99.90
22112;DHT22;11222;50.872;4.312;2023-10-31T02:51:38;10.80;99.90
22112;DHT22;11222;50.872;4.312;2023-10-31T02:54:03;10.90;99.90
22112;DHT22;11222;50.872;4.312;2023-10-31T02:56:29;10.80;99.90
22112;DHT22;11222;50.872;4.312;2023-10-31T02:58:55;10.80;99.90
22112;DHT22;11222;50.872;4.312;2023-10-31T03:01:20;10.80;99.90
22112;DHT22;11222;50.872;4.312;2023-10-31T03:03:46;10.80;99.90
22112;DHT22;11222;50.872;4.312;2023-10-31T03:06:11;10.80;99.90
22112;DHT22;11222;50.872;4.312;2023-10-31T03:08:37;10.80;99.90
22112;DHT22;11222;50.872;4.312;2023-10-31T03:11:02;10.70;99.90
22112;DHT22;11222;50.872;4.312;2023-10-31T03:13:28;10.80;99.90
22112;DHT22;11222;50.872;4.312;2023-10-31T03:15:53;10.70;99.90
22112;DHT22;11222;50.872;4.312;2023-10-31T03:18:19;10.70;99.90
22112;DHT22;11222;50.872;4.312;2023-10-31T03:20:45;10.70;99.90
22112;DHT22;11222;50.872;4.312;2023-10-31T03:23:11;10.70;99.90
22112;DHT22;11222;50.872;4.312;2023-10-31T03:25:37;10.70;99.90
22112;DHT22;11222;50.872;4.312;2023-10-31T03:28:03;10.60;99.90
22112;DHT22;11222;50.872;4.312;2023-10-31T03:30:28;10.60;99.90
22112;DHT22;11222;50.872;4.312;2023-10-31T03:32:54;10.60;99.90
22112;DHT22;11222;50.872;4.312;2023-10-31T03:35:19;10.50;99.90
22112;DHT22;11222;50.872;4.312;2023-10-31T03:37:45;10.50;99.90
22112;DHT22;11222;50.872;4.312;2023-10-31T03:40:10;10.50;99.90
22112;DHT22;11222;50.872;4.312;2023-10-31T03:42:36;10.50;99.90
22112;DHT22;11222;50.872;4.312;2023-10-31T03:45:02;10.50;99.90
22112;DHT22;11222;50.872;4.312;2023-10-31T03:47:27;10.50;99.90
22112;DHT22;11222;50.872;4.312;2023-10-31T03:49:53;10.50;99.90
22112;DHT22;11222;50.872;4.312;2023-10-31T03:52:18;10.50;99.90
22112;DHT22;11222;50.872;4.312;2023-10-31T03:54:45;10.40;99.90
22112;DHT22;11222;50.872;4.312;2023-10-31T03:57:10;10.40;99.90
22112;DHT22;11222;50.872;4.312;2023-10-31T03:59:39;10.40;99.90
22112;DHT22;11222;50.872;4.312;2023-10-31T04:02:04;10.40;99.90
22112;DHT22;11222;50.872;4.312;2023-10-31T04:04:30;10.30;99.90
22112;DHT22;11222;50.872;4.312;2023-10-31T04:06:55;10.30;99.90
22112;DHT22;11222;50.872;4.312;2023-10-31T04:09:21;10.40;99.90
22112;DHT22;11222;50.872;4.312;2023-10-31T04:11:47;10.40;99.90
22112;DHT22;11222;50.872;4.312;2023-10-31T04:14:12;10.40;99.90
22112;DHT22;11222;50.872;4.312;2023-10-31T04:16:39;10.40;99.90
22112;DHT22;11222;50.872;4.312;2023-10-31T04:19:05;10.40;99.90
22112;DHT22;11222;50.872;4.312;2023-10-31T04:21:30;10.30;99.90
22112;DHT22;11222;50.872;4.312;2023-10-31T04:23:56;10.30;99.90
22112;DHT22;11222;50.872;4.312;2023-10-31T04:26:22;10.30;99.90
22112;DHT22;11222;50.872;4.312;2023-10-31T04:28:47;10.30;99.90
22112;DHT22;11222;50.872;4.312;2023-10-31T04:31:12;10.30;99.90
22112;DHT22;11222;50.872;4.312;2023-10-31T04:33:38;10.30;99.90
22112;DHT22;11222;50.872;4.312;2023-10-31T04:36:04;10.40;99.90
22112;DHT22;11222;50.872;4.312;2023-10-31T04:38:29;10.40;99.90
22112;DHT22;11222;50.872;4.312;2023-10-31T04:40:55;10.40;99.90
22112;DHT22;11222;50.872;4.312;2023-10-31T04:43:20;10.40;99.90
22112;DHT22;11222;50.872;4.312;2023-10-31T04:45:46;10.50;99.90
22112;DHT22;11222;50.872;4.312;2023-10-31T04:48:11;10.40;99.90
22112;DHT22;11222;50.872;4.312;2023-10-31T04:50:37;10.50;99.90
22112;DHT22;11222;50.872;4.312;2023-10-31T04:53:03;10.50;99.90
22112;DHT22;11222;50.872;4.312;2023-10-31T04:55:28;10.50;99.90
22112;DHT22;11222;50.872;4.312;2023-10-31T04:57:54;10.40;99.90
22112;DHT22;11222;50.872;4.312;2023-10-31T05:00:19;10.50;99.90
22112;DHT22;11222;50.872;4.312;2023-10-31T05:02:45;10.50;99.90
22112;DHT22;11222;50.872;4.312;2023-10-31T05:05:11;10.50;99.90
22112;DHT22;11222;50.872;4.312;2023-10-31T05:07:36;10.50;99.90
22112;DHT22;11222;50.872;4.312;2023-10-31T05:10:02;10.60;99.90
22112;DHT22;11222;50.872;4.312;2023-10-31T05:12:27;10.60;99.90
22112;DHT22;11222;50.872;4.312;2023-10-31T05:14:53;10.60;99.90
22112;DHT22;11222;50.872;4.312;2023-10-31T05:17:18;10.60;99.90
22112;DHT22;11222;50.872;4.312;2023-10-31T05:19:44;10.60;99.90
22112;DHT22;11222;50.872;4.312;2023-10-31T05:22:09;10.70;99.90
22112;DHT22;11222;50.872;4.312;2023-10-31T05:24:35;10.70;99.90
22112;DHT22;11222;50.872;4.312;2023-10-31T05:27:01;10.60;99.90
22112;DHT22;11222;50.872;4.312;2023-10-31T05:29:27;10.70;99.90
22112;DHT22;11222;50.872;4.312;2023-10-31T05:31:52;10.80;99.90
22112;DHT22;11222;50.872;4.312;2023-10-31T05:34:18;10.80;99.90
22112;DHT22;11222;50.872;4.312;2023-10-31T05:36:43;10.80;99.90
22112;DHT22;11222;50.872;4.312;2023-10-31T05:39:09;10.80;99.90
22112;DHT22;11222;50.872;4.312;2023-10-31T05:41:35;10.70;99.90
22112;DHT22;11222;50.872;4.312;2023-10-31T05:44:01;10.70;99.90
22112;DHT22;11222;50.872;4.312;2023-10-31T05:46:26;10.70;99.90
22112;DHT22;11222;50.872;4.312;2023-10-31T05:48:52;10.70;99.90
22112;DHT22;11222;50.872;4.312;2023-10-31T05:51:18;10.80;99.90
22112;DHT22;11222;50.872;4.312;2023-10-31T05:53:47;10.80;99.90
22112;DHT22;11222;50.872;4.312;2023-10-31T05:56:14;10.80;99.90
22112;DHT22;11222;50.872;4.312;2023-10-31T05:58:40;10.90;99.90
22112;DHT22;11222;50.872;4.312;2023-10-31T06:01:05;10.90;99.90
22112;DHT22;11222;50.872;4.312;2023-10-31T06:03:31;10.90;99.90
22112;DHT22;11222;50.872;4.312;2023-10-31T06:05:57;11.00;99.90
22112;DHT22;11222;50.872;4.312;2023-10-31T06:08:23;11.00;99.90
22112;DHT22;11222;50.872;4.312;2023-10-31T06:10:50;11.10;99.90
22112;DHT22;11222;50.872;4.312;2023-10-31T06:13:16;11.10;99.90
22112;DHT22;11222;50.872;4.312;2023-10-31T06:15:42;11.10;99.90
22112;DHT22;11222;50.872;4.312;2023-10-31T06:18:07;11.20;99.90
22112;DHT22;11222;50.872;4.312;2023-10-31T06:20:33;11.20;99.90
22112;DHT22;11222;50.872;4.312;2023-10-31T06:23:00;11.20;99.90
22112;DHT22;11222;50.872;4.312;2023-10-31T06:25:26;11.30;99.90
22112;DHT22;11222;50.872;4.312;2023-10-31T06:27:51;11.20;99.90
22112;DHT22;11222;50.872;4.312;2023-10-31T06:30:17;11.20;99.90
22112;DHT22;11222;50.872;4.312;2023-10-31T06:32:43;11.20;99.90
22112;DHT22;11222;50.872;4.312;2023-10-31T06:35:08;11.20;99.90
22112;DHT22;11222;50.872;4.312;2023-10-31T06:37:34;11.20;99.90
22112;DHT22;11222;50.872;4.312;2023-10-31T06:40:01;11.30;99.90
22112;DHT22;11222;50.872;4.312;2023-10-31T06:42:26;11.20;99.90
22112;DHT22;11222;50.872;4.312;2023-10-31T06:44:52;11.10;99.90
22112;DHT22;11222;50.872;4.312;2023-10-31T06:47:18;10.90;99.90
22112;DHT22;11222;50.872;4.312;2023-10-31T06:49:44;10.90;99.90
22112;DHT22;11222;50.872;4.312;2023-10-31T06:52:09;10.80;99.90
22112;DHT22;11222;50.872;4.312;2023-10-31T06:54:35;10.90;99.90
22112;DHT22;11222;50.872;4.312;2023-10-31T06:57:01;10.90;99.90
22112;DHT22;11222;50.872;4.312;2023-10-31T06:59:29;10.80;99.90
22112;DHT22;11222;50.872;4.312;2023-10-31T07:01:54;10.80;99.90
22112;DHT22;11222;50.872;4.312;2023-10-31T07:04:20;10.80;99.90
22112;DHT22;11222;50.872;4.312;2023-10-31T07:06:46;10.80;99.90
22112;DHT22;11222;50.872;4.312;2023-10-31T07:09:11;10.80;99.90
22112;DHT22;11222;50.872;4.312;2023-10-31T07:11:37;10.90;99.90
22112;DHT22;11222;50.872;4.312;2023-10-31T07:14:02;11.00;99.90
22112;DHT22;11222;50.872;4.312;2023-10-31T07:16:31;11.00;99.90
22112;DHT22;11222;50.872;4.312;2023-10-31T07:18:57;11.00;99.90
22112;DHT22;11222;50.872;4.312;2023-10-31T07:21:23;11.00;99.90
22112;DHT22;11222;50.872;4.312;2023-10-31T07:23:49;11.00;99.90
22112;DHT22;11222;50.872;4.312;2023-10-31T07:26:14;10.90;99.90
22112;DHT22;11222;50.872;4.312;2023-10-31T07:28:40;11.00;99.90
22112;DHT22;11222;50.872;4.312;2023-10-31T07:31:06;11.10;99.90
22112;DHT22;11222;50.872;4.312;2023-10-31T07:33:32;11.10;99.90
22112;DHT22;11222;50.872;4.312;2023-10-31T07:35:58;11.00;99.90
22112;DHT22;11222;50.872;4.312;2023-10-31T07:38:23;11.00;99.90
22112;DHT22;11222;50.872;4.312;2023-10-31T07:40:49;11.00;99.90
22112;DHT22;11222;50.872;4.312;2023-10-31T07:43:15;11.10;99.90
22112;DHT22;11222;50.872;4.312;2023-10-31T07:45:40;11.10;99.90
22112;DHT22;11222;50.872;4.312;2023-10-31T07:48:07;11.20;99.90
22112;DHT22;11222;50.872;4.312;2023-10-31T07:50:32;11.20;99.90
22112;DHT22;11222;50.872;4.312;2023-10-31T07:52:58;11.20;99.90
22112;DHT22;11222;50.872;4.312;2023-10-31T07:55:23;11.40;99.90
22112;DHT22;11222;50.872;4.312;2023-10-31T07:57:49;11.30;99.90
22112;DHT22;11222;50.872;4.312;2023-10-31T08:00:15;11.40;99.90
22112;DHT22;11222;50.872;4.312;2023-10-31T08:02:41;11.40;99.90
22112;DHT22;11222;50.872;4.312;2023-10-31T08:05:06;11.50;99.90
22112;DHT22;11222;50.872;4.312;2023-10-31T08:07:32;11.50;99.90
22112;DHT22;11222;50.872;4.312;2023-10-31T08:09:59;11.40;99.90
22112;DHT22;11222;50.872;4.312;2023-10-31T08:12:24;11.50;99.90
22112;DHT22;11222;50.872;4.312;2023-10-31T08:14:50;11.50;99.90
22112;DHT22;11222;50.872;4.312;2023-10-31T08:17:15;11.50;99.90
22112;DHT22;11222;50.872;4.312;2023-10-31T08:19:41;11.40;99.90
22112;DHT22;11222;50.872;4.312;2023-10-31T08:22:07;11.30;99.90
22112;DHT22;11222;50.872;4.312;2023-10-31T08:24:33;11.30;99.90
22112;DHT22;11222;50.872;4.312;2023-10-31T08:27:01;11.30;99.90
22112;DHT22;11222;50.872;4.312;2023-10-31T08:29:27;11.30;99.90
22112;DHT22;11222;50.872;4.312;2023-10-31T08:31:52;11.30;99.90
22112;DHT22;11222;50.872;4.312;2023-10-31T08:34:18;11.30;99.90
22112;DHT22;11222;50.872;4.312;2023-10-31T08:36:43;11.30;99.90
22112;DHT22;11222;50.872;4.312;2023-10-31T08:39:09;11.20;99.90
22112;DHT22;11222;50.872;4.312;2023-10-31T08:41:34;11.20;99.90
22112;DHT22;11222;50.872;4.312;2023-10-31T08:44:02;11.10;99.90
22112;DHT22;11222;50.872;4.312;2023-10-31T08:46:29;11.30;99.90
22112;DHT22;11222;50.872;4.312;2023-10-31T08:48:54;11.40;99.90
22112;DHT22;11222;50.872;4.312;2023-10-31T08:51:20;11.50;99.90
22112;DHT22;11222;50.872;4.312;2023-10-31T08:53:45;11.50;99.90
22112;DHT22;11222;50.872;4.312;2023-10-31T08:56:11;11.60;99.90
22112;DHT22;11222;50.872;4.312;2023-10-31T08:58:36;11.80;99.90
22112;DHT22;11222;50.872;4.312;2023-10-31T09:01:02;12.00;99.90
22112;DHT22;11222;50.872;4.312;2023-10-31T09:03:27;12.10;99.90
22112;DHT22;11222;50.872;4.312;2023-10-31T09:05:53;12.20;99.90
22112;DHT22;11222;50.872;4.312;2023-10-31T09:08:18;12.10;99.90
22112;DHT22;11222;50.872;4.312;2023-10-31T09:10:44;12.20;99.90
22112;DHT22;11222;50.872;4.312;2023-10-31T09:13:11;12.20;99.90
22112;DHT22;11222;50.872;4.312;2023-10-31T09:15:37;12.20;99.90
22112;DHT22;11222;50.872;4.312;2023-10-31T09:18:03;12.50;99.90
22112;DHT22;11222;50.872;4.312;2023-10-31T09:20:29;12.60;99.90
22112;DHT22;11222;50.872;4.312;2023-10-31T09:22:55;12.60;99.90
22112;DHT22;11222;50.872;4.312;2023-10-31T09:25:20;12.60;99.90
22112;DHT22;11222;50.872;4.312;2023-10-31T09:27:46;12.70;99.90
22112;DHT22;11222;50.872;4.312;2023-10-31T09:30:11;12.70;99.90
22112;DHT22;11222;50.872;4.312;2023-10-31T09:32:37;12.60;99.90
22112;DHT22;11222;50.872;4.312;2023-10-31T09:35:02;12.40;99.90
22112;DHT22;11222;50.872;4.312;2023-10-31T09:37:28;12.30;99.90
22112;DHT22;11222;50.872;4.312;2023-10-31T09:39:54;12.20;99.90
22112;DHT22;11222;50.872;4.312;2023-10-31T09:42:21;12.10;99.90
22112;DHT22;11222;50.872;4.312;2023-10-31T09:44:46;12.00;99.90
22112;DHT22;11222;50.872;4.312;2023-10-31T09:47:12;11.90;99.90
22112;DHT22;11222;50.872;4.312;2023-10-31T09:49:37;11.80;99.90
22112;DHT22;11222;50.872;4.312;2023-10-31T09:52:03;11.80;99.90
22112;DHT22;11222;50.872;4.312;2023-10-31T09:54:29;11.70;99.90
22112;DHT22;11222;50.872;4.312;2023-10-31T09:56:54;11.80;99.90
22112;DHT22;11222;50.872;4.312;2023-10-31T09:59:20;11.90;99.90
22112;DHT22;11222;50.872;4.312;2023-10-31T10:01:46;12.00;99.90
22112;DHT22;11222;50.872;4.312;2023-10-31T10:04:11;12.20;99.90
22112;DHT22;11222;50.872;4.312;2023-10-31T10:06:49;12.30;99.90
22112;DHT22;11222;50.872;4.312;2023-10-31T10:09:15;12.50;99.90
22112;DHT22;11222;50.872;4.312;2023-10-31T10:11:41;12.50;99.90
22112;DHT22;11222;50.872;4.312;2023-10-31T10:14:06;12.40;99.90
22112;DHT22;11222;50.872;4.312;2023-10-31T10:16:34;12.40;99.90
22112;DHT22;11222;50.872;4.312;2023-10-31T10:19:14;12.30;99.90
22112;DHT22;11222;50.872;4.312;2023-10-31T10:21:45;12.20;99.90
22112;DHT22;11222;50.872;4.312;2023-10-31T10:24:11;12.20;99.90
22112;DHT22;11222;50.872;4.312;2023-10-31T10:26:37;12.20;99.90
22112;DHT22;11222;50.872;4.312;2023-10-31T10:29:02;12.10;99.90
22112;DHT22;11222;50.872;4.312;2023-10-31T10:31:28;12.10;99.90
22112;DHT22;11222;50.872;4.312;2023-10-31T10:33:53;12.10;99.90
22112;DHT22;11222;50.872;4.312;2023-10-31T10:36:20;12.00;99.90
22112;DHT22;11222;50.872;4.312;2023-10-31T10:38:46;11.90;99.90
22112;DHT22;11222;50.872;4.312;2023-10-31T10:41:12;11.90;99.90
22112;DHT22;11222;50.872;4.312;2023-10-31T10:43:39;11.90;99.90
22112;DHT22;11222;50.872;4.312;2023-10-31T10:46:06;11.90;99.90
22112;DHT22;11222;50.872;4.312;2023-10-31T10:48:32;12.10;99.90
22112;DHT22;11222;50.872;4.312;2023-10-31T10:51:04;12.10;99.90
22112;DHT22;11222;50.872;4.312;2023-10-31T10:53:34;12.30;99.90
22112;DHT22;11222;50.872;4.312;2023-10-31T10:56:03;12.30;99.90
22112;DHT22;11222;50.872;4.312;2023-10-31T10:58:44;12.30;99.90
22112;DHT22;11222;50.872;4.312;2023-10-31T11:01:14;12.30;99.90
22112;DHT22;11222;50.872;4.312;2023-10-31T11:03:44;12.20;99.90
22112;DHT22;11222;50.872;4.312;2023-10-31T11:06:10;12.20;99.90
22112;DHT22;11222;50.872;4.312;2023-10-31T11:08:35;12.10;99.90
22112;DHT22;11222;50.872;4.312;2023-10-31T11:11:02;12.10;99.90
22112;DHT22;11222;50.872;4.312;2023-10-31T11:13:28;12.00;99.90
22112;DHT22;11222;50.872;4.312;2023-10-31T11:15:55;12.00;99.90
22112;DHT22;11222;50.872;4.312;2023-10-31T11:18:22;11.90;99.90
22112;DHT22;11222;50.872;4.312;2023-10-31T11:20:48;11.90;99.90
22112;DHT22;11222;50.872;4.312;2023-10-31T11:23:14;11.90;99.90
22112;DHT22;11222;50.872;4.312;2023-10-31T11:25:43;12.00;99.90
22112;DHT22;11222;50.872;4.312;2023-10-31T11:28:16;12.10;99.90
22112;DHT22;11222;50.872;4.312;2023-10-31T11:30:43;12.30;99.90
22112;DHT22;11222;50.872;4.312;2023-10-31T11:33:12;12.40;99.90
22112;DHT22;11222;50.872;4.312;2023-10-31T11:35:39;12.40;99.90
22112;DHT22;11222;50.872;4.312;2023-10-31T11:38:05;12.50;99.90
22112;DHT22;11222;50.872;4.312;2023-10-31T11:40:32;12.60;99.90
22112;DHT22;11222;50.872;4.312;2023-10-31T11:42:58;12.50;99.90
22112;DHT22;11222;50.872;4.312;2023-10-31T11:45:27;12.40;99.90
22112;DHT22;11222;50.872;4.312;2023-10-31T11:47:56;12.20;99.90
22112;DHT22;11222;50.872;4.312;2023-10-31T11:50:22;12.10;99.90
22112;DHT22;11222;50.872;4.312;2023-10-31T11:53:00;12.00;99.90
22112;DHT22;11222;50.872;4.312;2023-10-31T11:55:26;12.10;99.90
22112;DHT22;11222;50.872;4.312;2023-10-31T11:57:52;12.20;99.90
22112;DHT22;11222;50.872;4.312;2023-10-31T12:00:21;12.30;99.90
22112;DHT22;11222;50.872;4.312;2023-10-31T12:03:00;12.30;99.90
22112;DHT22;11222;50.872;4.312;2023-10-31T12:05:26;12.30;99.90
22112;DHT22;11222;50.872;4.312;2023-10-31T12:07:51;12.20;99.90
22112;DHT22;11222;50.872;4.312;2023-10-31T12:12:58;12.10;99.90
22112;DHT22;11222;50.872;4.312;2023-10-31T12:15:24;12.00;99.90
22112;DHT22;11222;50.872;4.312;2023-10-31T12:17:50;12.00;99.90
22112;DHT22;11222;50.872;4.312;2023-10-31T12:20:15;12.00;99.90
22112;DHT22;11222;50.872;4.312;2023-10-31T12:22:41;12.00;99.90
22112;DHT22;11222;50.872;4.312;2023-10-31T12:25:07;12.00;99.90
22112;DHT22;11222;50.872;4.312;2023-10-31T12:30:09;12.20;99.90
22112;DHT22;11222;50.872;4.312;2023-10-31T12:32:35;12.30;99.90
22112;DHT22;11222;50.872;4.312;2023-10-31T12:35:00;12.30;99.90
22112;DHT22;11222;50.872;4.312;2023-10-31T12:37:26;12.40;99.90
22112;DHT22;11222;50.872;4.312;2023-10-31T12:39:51;12.40;99.90
22112;DHT22;11222;50.872;4.312;2023-10-31T12:42:17;12.40;99.90
22112;DHT22;11222;50.872;4.312;2023-10-31T12:44:43;12.40;99.90
22112;DHT22;11222;50.872;4.312;2023-10-31T12:47:08;12.50;99.90
22112;DHT22;11222;50.872;4.312;2023-10-31T12:49:34;12.60;99.90
22112;DHT22;11222;50.872;4.312;2023-10-31T12:52:00;12.50;99.90
22112;DHT22;11222;50.872;4.312;2023-10-31T12:54:27;12.60;99.90
22112;DHT22;11222;50.872;4.312;2023-10-31T12:56:53;12.60;99.90
22112;DHT22;11222;50.872;4.312;2023-10-31T12:59:19;12.50;99.90
22112;DHT22;11222;50.872;4.312;2023-10-31T13:01:44;12.40;99.90
22112;DHT22;11222;50.872;4.312;2023-10-31T13:04:10;12.40;99.90
22112;DHT22;11222;50.872;4.312;2023-10-31T13:06:37;12.40;99.90
22112;DHT22;11222;50.872;4.312;2023-10-31T13:09:03;12.50;99.90
22112;DHT22;11222;50.872;4.312;2023-10-31T13:11:31;12.40;99.90
22112;DHT22;11222;50.872;4.312;2023-10-31T13:13:56;12.30;99.90
22112;DHT22;11222;50.872;4.312;2023-10-31T13:16:22;12.30;99.90
22112;DHT22;11222;50.872;4.312;2023-10-31T13:18:48;12.20;99.90
22112;DHT22;11222;50.872;4.312;2023-10-31T13:21:14;12.20;99.90
22112;DHT22;11222;50.872;4.312;2023-10-31T13:23:41;12.20;99.90
22112;DHT22;11222;50.872;4.312;2023-10-31T13:26:11;12.20;99.90
22112;DHT22;11222;50.872;4.312;2023-10-31T13:28:36;12.20;99.90
22112;DHT22;11222;50.872;4.312;2023-10-31T13:31:04;12.10;99.90
22112;DHT22;11222;50.872;4.312;2023-10-31T13:33:30;12.20;99.90
22112;DHT22;11222;50.872;4.312;2023-10-31T13:35:55;12.20;99.90
22112;DHT22;11222;50.872;4.312;2023-10-31T13:38:21;12.30;99.90
22112;DHT22;11222;50.872;4.312;2023-10-31T13:40:46;12.30;99.90
22112;DHT22;11222;50.872;4.312;2023-10-31T13:43:12;12.40;99.90
22112;DHT22;11222;50.872;4.312;2023-10-31T13:45:37;12.50;99.90
22112;DHT22;11222;50.872;4.312;2023-10-31T13:48:03;12.60;99.90
22112;DHT22;11222;50.872;4.312;2023-10-31T13:50:28;12.60;99.90
22112;DHT22;11222;50.872;4.312;2023-10-31T13:52:55;12.70;99.90
22112;DHT22;11222;50.872;4.312;2023-10-31T13:55:21;12.90;99.90
22112;DHT22;11222;50.872;4.312;2023-10-31T13:57:46;13.00;99.90
22112;DHT22;11222;50.872;4.312;2023-10-31T14:00:12;13.20;99.90
22112;DHT22;11222;50.872;4.312;2023-10-31T14:02:38;13.20;99.90
22112;DHT22;11222;50.872;4.312;2023-10-31T14:05:04;13.20;99.90
22112;DHT22;11222;50.872;4.312;2023-10-31T14:07:30;13.30;99.90
22112;DHT22;11222;50.872;4.312;2023-10-31T14:09:55;13.40;99.90
22112;DHT22;11222;50.872;4.312;2023-10-31T14:12:23;13.30;99.90
22112;DHT22;11222;50.872;4.312;2023-10-31T14:14:48;13.20;99.90
22112;DHT22;11222;50.872;4.312;2023-10-31T14:17:17;13.20;99.90
22112;DHT22;11222;50.872;4.312;2023-10-31T14:19:43;13.30;99.90
22112;DHT22;11222;50.872;4.312;2023-10-31T14:22:08;13.40;99.90
22112;DHT22;11222;50.872;4.312;2023-10-31T14:24:34;13.40;99.90
22112;DHT22;11222;50.872;4.312;2023-10-31T14:27:00;13.40;99.90
22112;DHT22;11222;50.872;4.312;2023-10-31T14:29:26;13.30;99.90
22112;DHT22;11222;50.872;4.312;2023-10-31T14:31:51;13.30;99.90
22112;DHT22;11222;50.872;4.312;2023-10-31T14:34:18;13.20;99.90
22112;DHT22;11222;50.872;4.312;2023-10-31T14:36:44;13.30;99.90
22112;DHT22;11222;50.872;4.312;2023-10-31T14:39:09;13.40;99.90
22112;DHT22;11222;50.872;4.312;2023-10-31T14:41:35;13.30;99.90
22112;DHT22;11222;50.872;4.312;2023-10-31T14:44:01;13.30;99.90
22112;DHT22;11222;50.872;4.312;2023-10-31T14:46:27;13.20;99.90
22112;DHT22;11222;50.872;4.312;2023-10-31T14:48:53;13.10;99.90
22112;DHT22;11222;50.872;4.312;2023-10-31T14:51:18;13.10;99.90
22112;DHT22;11222;50.872;4.312;2023-10-31T14:53:44;13.00;99.90
22112;DHT22;11222;50.872;4.312;2023-10-31T14:56:09;13.00;99.90
22112;DHT22;11222;50.872;4.312;2023-10-31T14:58:35;13.00;99.90
22112;DHT22;11222;50.872;4.312;2023-10-31T15:01:01;13.00;99.90
22112;DHT22;11222;50.872;4.312;2023-10-31T15:03:27;13.00;99.90
22112;DHT22;11222;50.872;4.312;2023-10-31T15:05:52;13.10;99.90
22112;DHT22;11222;50.872;4.312;2023-10-31T15:08:18;13.10;99.90
22112;DHT22;11222;50.872;4.312;2023-10-31T15:10:43;13.10;99.90
22112;DHT22;11222;50.872;4.312;2023-10-31T15:13:09;13.20;99.90
22112;DHT22;11222;50.872;4.312;2023-10-31T15:15:35;13.20;99.90
22112;DHT22;11222;50.872;4.312;2023-10-31T15:18:00;13.10;99.90
22112;DHT22;11222;50.872;4.312;2023-10-31T15:20:26;13.10;99.90
22112;DHT22;11222;50.872;4.312;2023-10-31T15:22:52;13.20;99.90
22112;DHT22;11222;50.872;4.312;2023-10-31T15:25:18;13.20;99.90
22112;DHT22;11222;50.872;4.312;2023-10-31T15:27:44;13.10;99.90